sensor_id;sensor_type;location;lat;lon;timestamp;temperature;humidity
39503;DHT22;26970;49.900;10.774;2022-09-11T00:02:07;14.30;99.90
39503;DHT22;26970;49.900;10.774;2022-09-11T00:04:33;14.30;99.90
39503;DHT22;26970;49.900;10.774;2022-09-11T00:06:58;14.30;99.90
39503;DHT22;26970;49.900;10.774;2022-09-11T00:09:24;14.30;99.90
39503;DHT22;26970;49.900;10.774;2022-09-11T00:11:49;14.30;99.90
39503;DHT22;26970;49.900;10.774;2022-09-11T00:14:15;14.30;99.90
39503;DHT22;26970;49.900;10.774;2022-09-11T00:16:41;14.30;99.90
39503;DHT22;26970;49.900;10.774;2022-09-11T00:19:10;14.40;99.90
39503;DHT22;26970;49.900;10.774;2022-09-11T00:21:36;14.40;99.90
39503;DHT22;26970;49.900;10.774;2022-09-11T00:24:01;14.30;99.90
39503;DHT22;26970;49.900;10.774;2022-09-11T00:26:27;14.40;99.90
39503;DHT22;26970;49.900;10.774;2022-09-11T00:28:52;14.40;99.90
39503;DHT22;26970;49.900;10.774;2022-09-11T00:31:20;14.40;99.90
39503;DHT22;26970;49.900;10.774;2022-09-11T00:33:46;14.40;99.90
39503;DHT22;26970;49.900;10.774;2022-09-11T00:36:14;14.40;99.90
39503;DHT22;26970;49.900;10.774;2022-09-11T00:38:40;14.30;99.90
39503;DHT22;26970;49.900;10.774;2022-09-11T00:41:17;14.40;99.90
39503;DHT22;26970;49.900;10.774;2022-09-11T00:46:14;14.30;99.90
39503;DHT22;26970;49.900;10.774;2022-09-11T00:48:40;14.40;99.90
39503;DHT22;26970;49.900;10.774;2022-09-11T00:51:06;14.30;99.90
39503;DHT22;26970;49.900;10.774;2022-09-11T00:53:33;14.30;99.90
39503;DHT22;26970;49.900;10.774;2022-09-11T00:56:00;14.30;99.90
39503;DHT22;26970;49.900;10.774;2022-09-11T00:58:28;14.30;99.90
39503;DHT22;26970;49.900;10.774;2022-09-11T01:00:55;14.30;99.90
39503;DHT22;26970;49.900;10.774;2022-09-11T01:03:21;14.30;99.90
39503;DHT22;26970;49.900;10.774;2022-09-11T01:05:47;14.30;99.90
39503;DHT22;26970;49.900;10.774;2022-09-11T01:08:13;14.30;99.90
39503;DHT22;26970;49.900;10.774;2022-09-11T01:13:15;14.20;99.90
39503;DHT22;26970;49.900;10.774;2022-09-11T01:15:59;14.30;99.90
39503;DHT22;26970;49.900;10.774;2022-09-11T01:23:32;14.20;99.90
39503;DHT22;26970;49.900;10.774;2022-09-11T01:31:13;14.20;99.90
39503;DHT22;26970;49.900;10.774;2022-09-11T01:33:41;14.30;99.90
39503;DHT22;26970;49.900;10.774;2022-09-11T01:39:12;14.30;99.90
39503;DHT22;26970;49.900;10.774;2022-09-11T01:41:40;14.40;99.90
39503;DHT22;26970;49.900;10.774;2022-09-11T01:44:23;14.30;99.90
39503;DHT22;26970;49.900;10.774;2022-09-11T01:46:50;14.20;99.90
39503;DHT22;26970;49.900;10.774;2022-09-11T01:49:36;14.20;99.90
39503;DHT22;26970;49.900;10.774;2022-09-11T01:52:06;14.20;99.90
39503;DHT22;26970;49.900;10.774;2022-09-11T01:54:33;14.20;99.90
39503;DHT22;26970;49.900;10.774;2022-09-11T01:57:03;14.30;99.90
39503;DHT22;26970;49.900;10.774;2022-09-11T01:59:38;14.30;99.90
39503;DHT22;26970;49.900;10.774;2022-09-11T02:02:05;14.20;99.90
39503;DHT22;26970;49.900;10.774;2022-09-11T02:04:34;14.20;99.90
39503;DHT22;26970;49.900;10.774;2022-09-11T02:07:04;14.20;99.90
39503;DHT22;26970;49.900;10.774;2022-09-11T02:09:33;14.20;99.90
39503;DHT22;26970;49.900;10.774;2022-09-11T02:12:00;14.30;99.90
39503;DHT22;26970;49.900;10.774;2022-09-11T02:14:29;14.30;99.90
39503;DHT22;26970;49.900;10.774;2022-09-11T02:19:28;14.30;99.90
39503;DHT22;26970;49.900;10.774;2022-09-11T02:21:54;14.30;99.90
39503;DHT22;26970;49.900;10.774;2022-09-11T02:24:22;14.30;99.90
39503;DHT22;26970;49.900;10.774;2022-09-11T02:26:51;14.30;99.90
39503;DHT22;26970;49.900;10.774;2022-09-11T02:29:18;14.30;99.90
39503;DHT22;26970;49.900;10.774;2022-09-11T02:31:43;14.30;99.90
39503;DHT22;26970;49.900;10.774;2022-09-11T02:34:10;14.30;99.90
39503;DHT22;26970;49.900;10.774;2022-09-11T02:42:13;14.30;99.90
39503;DHT22;26970;49.900;10.774;2022-09-11T02:47:33;14.20;99.90
39503;DHT22;26970;49.900;10.774;2022-09-11T02:52:40;14.10;99.90
39503;DHT22;26970;49.900;10.774;2022-09-11T02:55:19;14.20;99.90
39503;DHT22;26970;49.900;10.774;2022-09-11T02:57:52;14.20;99.90
39503;DHT22;26970;49.900;10.774;2022-09-11T03:00:20;14.10;99.90
39503;DHT22;26970;49.900;10.774;2022-09-11T03:02:45;14.30;99.90
39503;DHT22;26970;49.900;10.774;2022-09-11T03:05:11;14.30;99.90
39503;DHT22;26970;49.900;10.774;2022-09-11T03:07:37;14.30;99.90
39503;DHT22;26970;49.900;10.774;2022-09-11T03:10:03;14.20;99.90
39503;DHT22;26970;49.900;10.774;2022-09-11T03:12:29;14.20;99.90
39503;DHT22;26970;49.900;10.774;2022-09-11T03:14:54;14.10;99.90
39503;DHT22;26970;49.900;10.774;2022-09-11T03:17:21;14.10;99.90
39503;DHT22;26970;49.900;10.774;2022-09-11T03:19:47;14.10;99.90
39503;DHT22;26970;49.900;10.774;2022-09-11T03:22:12;14.20;99.90
39503;DHT22;26970;49.900;10.774;2022-09-11T03:24:39;14.10;99.90
39503;DHT22;26970;49.900;10.774;2022-09-11T03:27:05;14.10;99.90
39503;DHT22;26970;49.900;10.774;2022-09-11T03:29:31;14.10;99.90
39503;DHT22;26970;49.900;10.774;2022-09-11T03:31:57;14.00;99.90
39503;DHT22;26970;49.900;10.774;2022-09-11T03:34:23;14.00;99.90
39503;DHT22;26970;49.900;10.774;2022-09-11T03:36:49;13.90;99.90
39503;DHT22;26970;49.900;10.774;2022-09-11T03:39:14;13.80;99.90
39503;DHT22;26970;49.900;10.774;2022-09-11T03:41:40;13.90;99.90
39503;DHT22;26970;49.900;10.774;2022-09-11T03:44:05;13.90;99.90
39503;DHT22;26970;49.900;10.774;2022-09-11T03:46:30;13.80;99.90
39503;DHT22;26970;49.900;10.774;2022-09-11T03:48:57;13.80;99.90
39503;DHT22;26970;49.900;10.774;2022-09-11T03:51:23;13.80;99.90
39503;DHT22;26970;49.900;10.774;2022-09-11T03:53:50;13.80;99.90
39503;DHT22;26970;49.900;10.774;2022-09-11T03:56:16;13.80;99.90
39503;DHT22;26970;49.900;10.774;2022-09-11T03:58:41;13.80;99.90
39503;DHT22;26970;49.900;10.774;2022-09-11T04:01:08;13.80;99.90
39503;DHT22;26970;49.900;10.774;2022-09-11T04:03:35;13.80;99.90
39503;DHT22;26970;49.900;10.774;2022-09-11T04:06:01;13.80;99.90
39503;DHT22;26970;49.900;10.774;2022-09-11T04:08:27;13.80;99.90
39503;DHT22;26970;49.900;10.774;2022-09-11T04:10:58;13.70;99.90
39503;DHT22;26970;49.900;10.774;2022-09-11T04:13:28;13.70;99.90
39503;DHT22;26970;49.900;10.774;2022-09-11T04:15:57;13.70;99.90
39503;DHT22;26970;49.900;10.774;2022-09-11T04:18:22;13.70;99.90
39503;DHT22;26970;49.900;10.774;2022-09-11T04:20:47;13.70;99.90
39503;DHT22;26970;49.900;10.774;2022-09-11T04:23:13;13.70;99.90
39503;DHT22;26970;49.900;10.774;2022-09-11T04:25:38;13.60;99.90
39503;DHT22;26970;49.900;10.774;2022-09-11T04:28:04;13.70;99.90
39503;DHT22;26970;49.900;10.774;2022-09-11T04:30:29;13.70;99.90
39503;DHT22;26970;49.900;10.774;2022-09-11T04:32:55;13.70;99.90
39503;DHT22;26970;49.900;10.774;2022-09-11T04:35:20;13.70;99.90
39503;DHT22;26970;49.900;10.774;2022-09-11T04:37:45;13.70;99.90
39503;DHT22;26970;49.900;10.774;2022-09-11T04:40:11;13.70;99.90
39503;DHT22;26970;49.900;10.774;2022-09-11T04:42:37;13.70;99.90
39503;DHT22;26970;49.900;10.774;2022-09-11T04:45:03;13.80;99.90
39503;DHT22;26970;49.900;10.774;2022-09-11T04:47:29;13.80;99.90
39503;DHT22;26970;49.900;10.774;2022-09-11T04:49:54;13.80;99.90
39503;DHT22;26970;49.900;10.774;2022-09-11T04:52:19;13.80;99.90
39503;DHT22;26970;49.900;10.774;2022-09-11T04:54:45;13.70;99.90
39503;DHT22;26970;49.900;10.774;2022-09-11T04:57:10;13.70;99.90
39503;DHT22;26970;49.900;10.774;2022-09-11T04:59:36;13.60;99.90
39503;DHT22;26970;49.900;10.774;2022-09-11T05:02:01;13.70;99.90
39503;DHT22;26970;49.900;10.774;2022-09-11T05:04:27;13.80;99.90
39503;DHT22;26970;49.900;10.774;2022-09-11T05:06:53;13.70;99.90
39503;DHT22;26970;49.900;10.774;2022-09-11T05:09:18;13.70;99.90
39503;DHT22;26970;49.900;10.774;2022-09-11T05:11:44;13.70;99.90
39503;DHT22;26970;49.900;10.774;2022-09-11T05:14:09;13.70;99.90
39503;DHT22;26970;49.900;10.774;2022-09-11T05:16:35;13.70;99.90
39503;DHT22;26970;49.900;10.774;2022-09-11T05:19:02;13.70;99.90
39503;DHT22;26970;49.900;10.774;2022-09-11T05:21:31;13.60;99.90
39503;DHT22;26970;49.900;10.774;2022-09-11T05:23:57;13.60;99.90
39503;DHT22;26970;49.900;10.774;2022-09-11T05:26:27;13.60;99.90
39503;DHT22;26970;49.900;10.774;2022-09-11T05:28:53;13.60;99.90
39503;DHT22;26970;49.900;10.774;2022-09-11T05:31:19;13.70;99.90
39503;DHT22;26970;49.900;10.774;2022-09-11T05:33:45;13.60;99.90
39503;DHT22;26970;49.900;10.774;2022-09-11T05:36:11;13.70;99.90
39503;DHT22;26970;49.900;10.774;2022-09-11T05:38:36;13.70;99.90
39503;DHT22;26970;49.900;10.774;2022-09-11T05:41:07;13.70;99.90
39503;DHT22;26970;49.900;10.774;2022-09-11T05:43:33;13.70;99.90
39503;DHT22;26970;49.900;10.774;2022-09-11T05:45:58;13.70;99.90
39503;DHT22;26970;49.900;10.774;2022-09-11T05:48:27;13.70;99.90
39503;DHT22;26970;49.900;10.774;2022-09-11T05:50:53;13.70;99.90
39503;DHT22;26970;49.900;10.774;2022-09-11T05:53:19;13.70;99.90
39503;DHT22;26970;49.900;10.774;2022-09-11T05:55:45;13.60;99.90
39503;DHT22;26970;49.900;10.774;2022-09-11T05:58:11;13.70;99.90
39503;DHT22;26970;49.900;10.774;2022-09-11T06:00:37;13.70;99.90
39503;DHT22;26970;49.900;10.774;2022-09-11T06:03:02;13.80;99.90
39503;DHT22;26970;49.900;10.774;2022-09-11T06:05:29;13.80;99.90
39503;DHT22;26970;49.900;10.774;2022-09-11T06:07:54;13.70;99.90
39503;DHT22;26970;49.900;10.774;2022-09-11T06:10:20;13.80;99.90
39503;DHT22;26970;49.900;10.774;2022-09-11T06:12:45;13.80;99.90
39503;DHT22;26970;49.900;10.774;2022-09-11T06:15:11;13.80;99.90
39503;DHT22;26970;49.900;10.774;2022-09-11T06:17:36;13.80;99.90
39503;DHT22;26970;49.900;10.774;2022-09-11T06:20:02;13.80;99.90
39503;DHT22;26970;49.900;10.774;2022-09-11T06:22:27;13.90;99.90
39503;DHT22;26970;49.900;10.774;2022-09-11T06:24:56;13.90;99.90
39503;DHT22;26970;49.900;10.774;2022-09-11T06:27:22;13.90;99.90
39503;DHT22;26970;49.900;10.774;2022-09-11T06:29:47;13.90;99.90
39503;DHT22;26970;49.900;10.774;2022-09-11T06:32:13;13.90;99.90
39503;DHT22;26970;49.900;10.774;2022-09-11T06:34:39;14.00;99.90
39503;DHT22;26970;49.900;10.774;2022-09-11T06:37:04;14.00;99.90
39503;DHT22;26970;49.900;10.774;2022-09-11T06:39:29;14.00;99.90
39503;DHT22;26970;49.900;10.774;2022-09-11T06:41:55;14.10;99.90
39503;DHT22;26970;49.900;10.774;2022-09-11T06:44:20;14.10;99.90
39503;DHT22;26970;49.900;10.774;2022-09-11T06:46:46;14.10;99.90
39503;DHT22;26970;49.900;10.774;2022-09-11T06:49:12;14.20;99.90
39503;DHT22;26970;49.900;10.774;2022-09-11T06:51:37;14.20;99.90
39503;DHT22;26970;49.900;10.774;2022-09-11T06:54:04;14.20;99.90
39503;DHT22;26970;49.900;10.774;2022-09-11T06:56:30;14.20;99.90
39503;DHT22;26970;49.900;10.774;2022-09-11T06:58:56;14.20;99.90
39503;DHT22;26970;49.900;10.774;2022-09-11T07:01:22;14.30;99.90
39503;DHT22;26970;49.900;10.774;2022-09-11T07:03:49;14.20;99.90
39503;DHT22;26970;49.900;10.774;2022-09-11T07:06:24;14.20;99.90
39503;DHT22;26970;49.900;10.774;2022-09-11T07:08:51;14.10;99.90
39503;DHT22;26970;49.900;10.774;2022-09-11T07:11:16;14.10;99.90
39503;DHT22;26970;49.900;10.774;2022-09-11T07:13:42;14.20;99.90
39503;DHT22;26970;49.900;10.774;2022-09-11T07:16:08;14.20;99.90
39503;DHT22;26970;49.900;10.774;2022-09-11T07:18:38;14.30;99.90
39503;DHT22;26970;49.900;10.774;2022-09-11T07:21:04;14.30;99.90
39503;DHT22;26970;49.900;10.774;2022-09-11T07:23:31;14.40;99.90
39503;DHT22;26970;49.900;10.774;2022-09-11T07:25:56;14.40;99.90
39503;DHT22;26970;49.900;10.774;2022-09-11T07:28:26;14.40;99.90
39503;DHT22;26970;49.900;10.774;2022-09-11T07:30:51;14.40;99.90
39503;DHT22;26970;49.900;10.774;2022-09-11T07:33:17;14.40;99.90
39503;DHT22;26970;49.900;10.774;2022-09-11T07:35:42;14.40;99.90
39503;DHT22;26970;49.900;10.774;2022-09-11T07:38:07;14.40;99.90
39503;DHT22;26970;49.900;10.774;2022-09-11T07:40:33;14.40;99.90
39503;DHT22;26970;49.900;10.774;2022-09-11T07:42:58;14.40;99.90
39503;DHT22;26970;49.900;10.774;2022-09-11T07:45:24;14.50;99.90
39503;DHT22;26970;49.900;10.774;2022-09-11T07:47:52;14.60;99.90
39503;DHT22;26970;49.900;10.774;2022-09-11T07:50:17;14.60;99.90
39503;DHT22;26970;49.900;10.774;2022-09-11T07:52:43;14.50;99.90
39503;DHT22;26970;49.900;10.774;2022-09-11T07:55:08;14.70;99.90
39503;DHT22;26970;49.900;10.774;2022-09-11T07:57:34;14.60;99.90
39503;DHT22;26970;49.900;10.774;2022-09-11T07:59:59;14.70;99.90
39503;DHT22;26970;49.900;10.774;2022-09-11T08:02:24;14.80;99.90
39503;DHT22;26970;49.900;10.774;2022-09-11T08:04:50;14.90;99.90
39503;DHT22;26970;49.900;10.774;2022-09-11T08:07:15;15.00;99.90
39503;DHT22;26970;49.900;10.774;2022-09-11T08:09:41;15.10;99.90
39503;DHT22;26970;49.900;10.774;2022-09-11T08:12:07;15.10;99.90
39503;DHT22;26970;49.900;10.774;2022-09-11T08:14:34;15.20;99.90
39503;DHT22;26970;49.900;10.774;2022-09-11T08:17:01;15.30;99.90
39503;DHT22;26970;49.900;10.774;2022-09-11T08:19:26;15.40;99.90
39503;DHT22;26970;49.900;10.774;2022-09-11T08:21:52;15.30;99.90
39503;DHT22;26970;49.900;10.774;2022-09-11T08:24:17;15.20;99.90
39503;DHT22;26970;49.900;10.774;2022-09-11T08:26:44;15.30;99.90
39503;DHT22;26970;49.900;10.774;2022-09-11T08:29:10;15.30;99.90
39503;DHT22;26970;49.900;10.774;2022-09-11T08:31:38;15.20;99.90
39503;DHT22;26970;49.900;10.774;2022-09-11T08:34:04;15.40;99.90
39503;DHT22;26970;49.900;10.774;2022-09-11T08:36:29;15.40;99.90
39503;DHT22;26970;49.900;10.774;2022-09-11T08:38:55;15.50;99.90
39503;DHT22;26970;49.900;10.774;2022-09-11T08:44:01;15.80;99.90
39503;DHT22;26970;49.900;10.774;2022-09-11T08:46:30;15.90;99.90
39503;DHT22;26970;49.900;10.774;2022-09-11T08:51:26;15.80;99.90
39503;DHT22;26970;49.900;10.774;2022-09-11T08:53:52;15.70;99.90
39503;DHT22;26970;49.900;10.774;2022-09-11T08:56:20;15.70;99.90
39503;DHT22;26970;49.900;10.774;2022-09-11T08:59:00;15.60;99.90
39503;DHT22;26970;49.900;10.774;2022-09-11T09:01:37;15.80;99.90
39503;DHT22;26970;49.900;10.774;2022-09-11T09:09:18;15.80;99.90
39503;DHT22;26970;49.900;10.774;2022-09-11T09:11:55;15.90;99.90
39503;DHT22;26970;49.900;10.774;2022-09-11T09:14:27;16.00;99.90
39503;DHT22;26970;49.900;10.774;2022-09-11T09:19:32;16.40;99.90
39503;DHT22;26970;49.900;10.774;2022-09-11T09:22:04;16.50;99.90
39503;DHT22;26970;49.900;10.774;2022-09-11T09:24:35;16.60;99.90
39503;DHT22;26970;49.900;10.774;2022-09-11T09:27:03;16.70;99.90
39503;DHT22;26970;49.900;10.774;2022-09-11T09:29:31;16.90;99.90
39503;DHT22;26970;49.900;10.774;2022-09-11T09:32:05;16.90;99.90
39503;DHT22;26970;49.900;10.774;2022-09-11T09:34:32;16.90;99.90
39503;DHT22;26970;49.900;10.774;2022-09-11T09:39:43;16.90;99.90
39503;DHT22;26970;49.900;10.774;2022-09-11T09:44:45;17.00;99.90
39503;DHT22;26970;49.900;10.774;2022-09-11T09:47:12;16.90;99.90
39503;DHT22;26970;49.900;10.774;2022-09-11T09:49:38;16.90;99.90
39503;DHT22;26970;49.900;10.774;2022-09-11T09:52:17;17.20;99.90
39503;DHT22;26970;49.900;10.774;2022-09-11T09:55:04;17.30;99.90
39503;DHT22;26970;49.900;10.774;2022-09-11T09:57:30;17.60;99.90
39503;DHT22;26970;49.900;10.774;2022-09-11T10:00:00;17.50;99.90
39503;DHT22;26970;49.900;10.774;2022-09-11T10:05:26;17.80;99.90
39503;DHT22;26970;49.900;10.774;2022-09-11T10:07:53;17.90;99.90
39503;DHT22;26970;49.900;10.774;2022-09-11T10:13:04;17.80;99.90
39503;DHT22;26970;49.900;10.774;2022-09-11T10:15:41;17.30;99.90
39503;DHT22;26970;49.900;10.774;2022-09-11T10:20:51;17.40;99.90
39503;DHT22;26970;49.900;10.774;2022-09-11T10:23:21;17.50;99.90
39503;DHT22;26970;49.900;10.774;2022-09-11T10:25:47;17.30;99.90
39503;DHT22;26970;49.900;10.774;2022-09-11T10:28:15;17.30;99.90
39503;DHT22;26970;49.900;10.774;2022-09-11T10:30:59;17.30;99.90
39503;DHT22;26970;49.900;10.774;2022-09-11T10:33:30;17.30;99.90
39503;DHT22;26970;49.900;10.774;2022-09-11T10:35:58;17.30;99.90
39503;DHT22;26970;49.900;10.774;2022-09-11T10:38:32;17.10;99.90
39503;DHT22;26970;49.900;10.774;2022-09-11T10:41:06;16.90;99.90
39503;DHT22;26970;49.900;10.774;2022-09-11T10:44:15;17.00;99.90
39503;DHT22;26970;49.900;10.774;2022-09-11T10:48:58;17.30;99.90
39503;DHT22;26970;49.900;10.774;2022-09-11T10:51:38;17.80;99.90
39503;DHT22;26970;49.900;10.774;2022-09-11T10:59:40;18.80;99.90
39503;DHT22;26970;49.900;10.774;2022-09-11T11:02:26;18.70;99.90
39503;DHT22;26970;49.900;10.774;2022-09-11T11:04:53;18.90;99.90
39503;DHT22;26970;49.900;10.774;2022-09-11T11:10:16;19.00;99.90
39503;DHT22;26970;49.900;10.774;2022-09-11T11:12:56;18.60;99.90
39503;DHT22;26970;49.900;10.774;2022-09-11T11:18:23;18.30;99.90
39503;DHT22;26970;49.900;10.774;2022-09-11T11:23:40;18.00;99.90
39503;DHT22;26970;49.900;10.774;2022-09-11T11:26:16;17.80;99.90
39503;DHT22;26970;49.900;10.774;2022-09-11T11:28:48;17.80;99.90
39503;DHT22;26970;49.900;10.774;2022-09-11T11:31:26;17.70;99.90
39503;DHT22;26970;49.900;10.774;2022-09-11T11:34:02;17.60;99.90
39503;DHT22;26970;49.900;10.774;2022-09-11T11:36:33;17.60;99.90
39503;DHT22;26970;49.900;10.774;2022-09-11T11:39:16;17.80;99.90
39503;DHT22;26970;49.900;10.774;2022-09-11T11:41:49;17.80;99.90
39503;DHT22;26970;49.900;10.774;2022-09-11T11:47:10;17.70;99.90
39503;DHT22;26970;49.900;10.774;2022-09-11T11:52:22;17.60;99.90
39503;DHT22;26970;49.900;10.774;2022-09-11T11:54:51;17.70;99.90
39503;DHT22;26970;49.900;10.774;2022-09-11T11:57:19;17.80;99.90
39503;DHT22;26970;49.900;10.774;2022-09-11T12:02:23;18.00;99.90
39503;DHT22;26970;49.900;10.774;2022-09-11T12:04:50;18.00;99.90
39503;DHT22;26970;49.900;10.774;2022-09-11T12:09:49;18.20;99.90
39503;DHT22;26970;49.900;10.774;2022-09-11T12:12:16;18.60;99.90
39503;DHT22;26970;49.900;10.774;2022-09-11T12:14:50;18.70;99.90
39503;DHT22;26970;49.900;10.774;2022-09-11T12:17:32;18.80;99.90
39503;DHT22;26970;49.900;10.774;2022-09-11T12:25:03;18.40;99.90
39503;DHT22;26970;49.900;10.774;2022-09-11T12:30:06;18.50;99.90
39503;DHT22;26970;49.900;10.774;2022-09-11T12:32:39;18.40;99.90
39503;DHT22;26970;49.900;10.774;2022-09-11T12:37:42;18.60;99.90
39503;DHT22;26970;49.900;10.774;2022-09-11T12:40:17;19.00;99.90
39503;DHT22;26970;49.900;10.774;2022-09-11T12:45:35;19.30;99.90
39503;DHT22;26970;49.900;10.774;2022-09-11T12:48:02;19.60;99.90
39503;DHT22;26970;49.900;10.774;2022-09-11T12:50:28;19.90;99.90
39503;DHT22;26970;49.900;10.774;2022-09-11T12:52:54;20.10;99.90
39503;DHT22;26970;49.900;10.774;2022-09-11T12:57:56;20.30;99.90
39503;DHT22;26970;49.900;10.774;2022-09-11T13:00:30;20.30;99.90
39503;DHT22;26970;49.900;10.774;2022-09-11T13:02:57;20.30;99.90
39503;DHT22;26970;49.900;10.774;2022-09-11T13:05:27;20.20;99.90
39503;DHT22;26970;49.900;10.774;2022-09-11T13:07:59;20.20;99.90
39503;DHT22;26970;49.900;10.774;2022-09-11T13:12:54;20.30;99.90
39503;DHT22;26970;49.900;10.774;2022-09-11T13:18:20;20.10;99.90
39503;DHT22;26970;49.900;10.774;2022-09-11T13:20:55;20.00;99.90
39503;DHT22;26970;49.900;10.774;2022-09-11T13:23:20;20.20;99.90
39503;DHT22;26970;49.900;10.774;2022-09-11T13:25:46;20.20;99.90
39503;DHT22;26970;49.900;10.774;2022-09-11T13:28:11;20.20;99.90
39503;DHT22;26970;49.900;10.774;2022-09-11T13:30:37;20.20;99.90
39503;DHT22;26970;49.900;10.774;2022-09-11T13:33:16;20.10;99.90
39503;DHT22;26970;49.900;10.774;2022-09-11T13:35:43;20.00;99.90
39503;DHT22;26970;49.900;10.774;2022-09-11T13:38:12;19.70;99.90
39503;DHT22;26970;49.900;10.774;2022-09-11T13:40:52;19.40;99.90
39503;DHT22;26970;49.900;10.774;2022-09-11T13:43:20;19.10;99.90
39503;DHT22;26970;49.900;10.774;2022-09-11T13:45:47;18.90;99.90
39503;DHT22;26970;49.900;10.774;2022-09-11T13:48:19;18.90;99.90
39503;DHT22;26970;49.900;10.774;2022-09-11T13:50:45;18.90;99.90
39503;DHT22;26970;49.900;10.774;2022-09-11T13:53:11;19.40;99.90
39503;DHT22;26970;49.900;10.774;2022-09-11T13:55:37;19.40;99.90
39503;DHT22;26970;49.900;10.774;2022-09-11T13:58:18;19.30;99.90
39503;DHT22;26970;49.900;10.774;2022-09-11T14:00:45;19.30;99.90
39503;DHT22;26970;49.900;10.774;2022-09-11T14:03:25;19.40;99.90
39503;DHT22;26970;49.900;10.774;2022-09-11T14:05:56;19.20;99.90
39503;DHT22;26970;49.900;10.774;2022-09-11T14:08:32;19.00;99.90
39503;DHT22;26970;49.900;10.774;2022-09-11T14:11:00;19.10;99.90
39503;DHT22;26970;49.900;10.774;2022-09-11T14:18:36;19.30;99.90
39503;DHT22;26970;49.900;10.774;2022-09-11T14:21:05;19.50;99.90
39503;DHT22;26970;49.900;10.774;2022-09-11T14:23:42;19.60;99.90
39503;DHT22;26970;49.900;10.774;2022-09-11T14:26:09;19.60;99.90
39503;DHT22;26970;49.900;10.774;2022-09-11T14:28:43;19.60;99.90
39503;DHT22;26970;49.900;10.774;2022-09-11T14:31:11;19.70;99.90
39503;DHT22;26970;49.900;10.774;2022-09-11T14:33:38;20.00;99.90
39503;DHT22;26970;49.900;10.774;2022-09-11T14:36:04;19.70;99.90
39503;DHT22;26970;49.900;10.774;2022-09-11T14:38:31;19.90;99.90
39503;DHT22;26970;49.900;10.774;2022-09-11T14:41:01;19.80;99.90
39503;DHT22;26970;49.900;10.774;2022-09-11T14:43:29;19.40;99.90
39503;DHT22;26970;49.900;10.774;2022-09-11T14:45:59;19.10;99.90
39503;DHT22;26970;49.900;10.774;2022-09-11T14:48:29;18.80;99.90
39503;DHT22;26970;49.900;10.774;2022-09-11T14:50:56;18.40;99.90
39503;DHT22;26970;49.900;10.774;2022-09-11T14:53:25;18.00;99.90
39503;DHT22;26970;49.900;10.774;2022-09-11T14:55:52;17.90;99.90
39503;DHT22;26970;49.900;10.774;2022-09-11T14:58:17;17.70;99.90
39503;DHT22;26970;49.900;10.774;2022-09-11T15:00:44;17.60;99.90
39503;DHT22;26970;49.900;10.774;2022-09-11T15:03:09;17.30;99.90
39503;DHT22;26970;49.900;10.774;2022-09-11T15:05:34;17.20;99.90
39503;DHT22;26970;49.900;10.774;2022-09-11T15:08:00;17.10;99.90
39503;DHT22;26970;49.900;10.774;2022-09-11T15:10:26;17.10;99.90
39503;DHT22;26970;49.900;10.774;2022-09-11T15:12:52;17.20;99.90
39503;DHT22;26970;49.900;10.774;2022-09-11T15:15:18;17.30;99.90
39503;DHT22;26970;49.900;10.774;2022-09-11T15:17:44;17.30;99.90
39503;DHT22;26970;49.900;10.774;2022-09-11T15:20:10;17.30;99.90
39503;DHT22;26970;49.900;10.774;2022-09-11T15:22:36;17.40;99.90
39503;DHT22;26970;49.900;10.774;2022-09-11T15:25:02;17.30;99.90
39503;DHT22;26970;49.900;10.774;2022-09-11T15:27:28;17.30;99.90
39503;DHT22;26970;49.900;10.774;2022-09-11T15:29:53;17.30;99.90
39503;DHT22;26970;49.900;10.774;2022-09-11T15:32:19;17.40;99.90
39503;DHT22;26970;49.900;10.774;2022-09-11T15:34:45;17.40;99.90
39503;DHT22;26970;49.900;10.774;2022-09-11T15:37:11;17.50;99.90
39503;DHT22;26970;49.900;10.774;2022-09-11T15:39:37;17.50;99.90
39503;DHT22;26970;49.900;10.774;2022-09-11T15:42:02;17.50;99.90
39503;DHT22;26970;49.900;10.774;2022-09-11T15:44:28;17.50;99.90
39503;DHT22;26970;49.900;10.774;2022-09-11T15:46:54;17.60;99.90
39503;DHT22;26970;49.900;10.774;2022-09-11T15:49:21;17.80;99.90
39503;DHT22;26970;49.900;10.774;2022-09-11T15:51:47;17.70;99.90
39503;DHT22;26970;49.900;10.774;2022-09-11T15:54:13;17.80;99.90
39503;DHT22;26970;49.900;10.774;2022-09-11T15:56:40;17.80;99.90
39503;DHT22;26970;49.900;10.774;2022-09-11T15:59:05;18.00;99.90
39503;DHT22;26970;49.900;10.774;2022-09-11T16:01:32;18.00;99.90
39503;DHT22;26970;49.900;10.774;2022-09-11T16:03:58;18.10;99.90
39503;DHT22;26970;49.900;10.774;2022-09-11T16:06:25;18.10;99.90
39503;DHT22;26970;49.900;10.774;2022-09-11T16:08:54;18.20;99.90
39503;DHT22;26970;49.900;10.774;2022-09-11T16:11:20;18.10;99.90
39503;DHT22;26970;49.900;10.774;2022-09-11T16:13:48;17.90;99.90
39503;DHT22;26970;49.900;10.774;2022-09-11T16:16:17;17.80;99.90
39503;DHT22;26970;49.900;10.774;2022-09-11T16:18:43;17.90;99.90
39503;DHT22;26970;49.900;10.774;2022-09-11T16:21:09;18.00;99.90
39503;DHT22;26970;49.900;10.774;2022-09-11T16:23:35;18.10;99.90
39503;DHT22;26970;49.900;10.774;2022-09-11T16:26:06;18.00;99.90
39503;DHT22;26970;49.900;10.774;2022-09-11T16:28:32;18.10;99.90
39503;DHT22;26970;49.900;10.774;2022-09-11T16:30:58;18.20;99.90
39503;DHT22;26970;49.900;10.774;2022-09-11T16:33:23;18.20;99.90
39503;DHT22;26970;49.900;10.774;2022-09-11T16:35:58;18.20;99.90
39503;DHT22;26970;49.900;10.774;2022-09-11T16:38:25;18.20;99.90
39503;DHT22;26970;49.900;10.774;2022-09-11T16:40:58;18.20;99.90
39503;DHT22;26970;49.900;10.774;2022-09-11T16:43:24;18.20;99.90
39503;DHT22;26970;49.900;10.774;2022-09-11T16:45:50;18.20;99.90
39503;DHT22;26970;49.900;10.774;2022-09-11T16:48:16;18.20;99.90
39503;DHT22;26970;49.900;10.774;2022-09-11T16:50:42;18.20;99.90
39503;DHT22;26970;49.900;10.774;2022-09-11T16:53:07;18.20;99.90
39503;DHT22;26970;49.900;10.774;2022-09-11T16:55:37;18.10;99.90
39503;DHT22;26970;49.900;10.774;2022-09-11T16:58:02;18.10;99.90
39503;DHT22;26970;49.900;10.774;2022-09-11T17:00:28;18.10;99.90
39503;DHT22;26970;49.900;10.774;2022-09-11T17:02:53;18.00;99.90
39503;DHT22;26970;49.900;10.774;2022-09-11T17:05:19;18.00;99.90
39503;DHT22;26970;49.900;10.774;2022-09-11T17:07:44;17.90;99.90
39503;DHT22;26970;49.900;10.774;2022-09-11T17:10:10;17.80;99.90
39503;DHT22;26970;49.900;10.774;2022-09-11T17:12:35;17.70;99.90